sensor_id;sensor_type;location;lat;lon;timestamp;pressure;altitude;pressure_sealevel;temperature;humidity
20394;BME280;10356;50.544;9.642;2023-12-28T00:01:54;98099.09;;;4.91;79.83
20394;BME280;10356;50.544;9.642;2023-12-28T00:04:20;98104.09;;;4.94;80.10
20394;BME280;10356;50.544;9.642;2023-12-28T00:06:47;98105.09;;;4.92;79.89
20394;BME280;10356;50.544;9.642;2023-12-28T00:09:13;98097.25;;;4.93;79.76
20394;BME280;10356;50.544;9.642;2023-12-28T00:11:40;98100.47;;;4.97;79.89
20394;BME280;10356;50.544;9.642;2023-12-28T00:14:06;98112.97;;;5.04;79.61
20394;BME280;10356;50.544;9.642;2023-12-28T00:16:33;98116.53;;;5.02;79.62
20394;BME280;10356;50.544;9.642;2023-12-28T00:19:03;98118.16;;;4.89;80.57
20394;BME280;10356;50.544;9.642;2023-12-28T00:21:29;98104.09;;;4.79;81.82
20394;BME280;10356;50.544;9.642;2023-12-28T00:23:56;98114.44;;;4.79;81.30
20394;BME280;10356;50.544;9.642;2023-12-28T00:26:22;98115.25;;;4.79;81.05
20394;BME280;10356;50.544;9.642;2023-12-28T00:28:49;98117.84;;;4.79;81.18
20394;BME280;10356;50.544;9.642;2023-12-28T00:31:15;98121.78;;;4.71;81.54
20394;BME280;10356;50.544;9.642;2023-12-28T00:33:42;98122.50;;;4.73;81.07
20394;BME280;10356;50.544;9.642;2023-12-28T00:36:10;98120.09;;;4.85;80.37
20394;BME280;10356;50.544;9.642;2023-12-28T00:38:36;98121.28;;;4.80;80.45
20394;BME280;10356;50.544;9.642;2023-12-28T00:41:03;98121.91;;;4.83;80.15
20394;BME280;10356;50.544;9.642;2023-12-28T00:43:29;98114.22;;;4.97;79.07
20394;BME280;10356;50.544;9.642;2023-12-28T00:45:56;98109.06;;;4.97;78.98
20394;BME280;10356;50.544;9.642;2023-12-28T00:48:22;98111.13;;;5.06;78.14
20394;BME280;10356;50.544;9.642;2023-12-28T00:50:49;98118.53;;;5.13;77.80
20394;BME280;10356;50.544;9.642;2023-12-28T00:53:16;98117.19;;;5.05;78.27
20394;BME280;10356;50.544;9.642;2023-12-28T00:55:43;98125.03;;;5.04;78.47
20394;BME280;10356;50.544;9.642;2023-12-28T00:58:09;98131.84;;;5.05;78.71
20394;BME280;10356;50.544;9.642;2023-12-28T01:00:36;98142.72;;;4.96;79.78
20394;BME280;10356;50.544;9.642;2023-12-28T01:03:03;98146.19;;;4.95;79.76
20394;BME280;10356;50.544;9.642;2023-12-28T01:05:29;98144.84;;;5.03;78.96
20394;BME280;10356;50.544;9.642;2023-12-28T01:07:56;98147.00;;;5.11;78.45
20394;BME280;10356;50.544;9.642;2023-12-28T01:10:24;98137.59;;;5.10;78.68
20394;BME280;10356;50.544;9.642;2023-12-28T01:12:50;98142.50;;;5.15;78.76
20394;BME280;10356;50.544;9.642;2023-12-28T01:15:17;98141.50;;;5.17;78.13
20394;BME280;10356;50.544;9.642;2023-12-28T01:17:45;98138.56;;;5.23;77.59
20394;BME280;10356;50.544;9.642;2023-12-28T01:20:12;98135.34;;;5.34;77.50
20394;BME280;10356;50.544;9.642;2023-12-28T01:22:39;98135.72;;;5.42;76.98
20394;BME280;10356;50.544;9.642;2023-12-28T01:25:06;98141.22;;;5.51;75.93
20394;BME280;10356;50.544;9.642;2023-12-28T01:27:34;98154.88;;;5.53;76.59
20394;BME280;10356;50.544;9.642;2023-12-28T01:30:00;98150.88;;;5.48;76.98
20394;BME280;10356;50.544;9.642;2023-12-28T01:32:27;98152.91;;;5.43;77.70
20394;BME280;10356;50.544;9.642;2023-12-28T01:34:53;98155.59;;;5.41;77.71
20394;BME280;10356;50.544;9.642;2023-12-28T01:37:20;98154.09;;;5.37;78.73
20394;BME280;10356;50.544;9.642;2023-12-28T01:39:46;98158.22;;;5.40;78.63
20394;BME280;10356;50.544;9.642;2023-12-28T01:42:13;98164.25;;;5.40;79.12
20394;BME280;10356;50.544;9.642;2023-12-28T01:44:40;98158.44;;;5.51;78.98
20394;BME280;10356;50.544;9.642;2023-12-28T01:47:07;98171.81;;;5.43;80.22
20394;BME280;10356;50.544;9.642;2023-12-28T01:49:33;98185.00;;;5.39;80.74
20394;BME280;10356;50.544;9.642;2023-12-28T01:52:02;98175.19;;;5.59;79.73
20394;BME280;10356;50.544;9.642;2023-12-28T01:54:29;98188.00;;;5.61;80.13
20394;BME280;10356;50.544;9.642;2023-12-28T01:56:57;98185.81;;;5.69;80.37
20394;BME280;10356;50.544;9.642;2023-12-28T01:59:23;98183.13;;;5.70;80.68
20394;BME280;10356;50.544;9.642;2023-12-28T02:01:51;98175.09;;;5.75;80.44
20394;BME280;10356;50.544;9.642;2023-12-28T02:04:18;98169.88;;;5.90;78.24
20394;BME280;10356;50.544;9.642;2023-12-28T02:06:51;98174.66;;;5.97;78.61
20394;BME280;10356;50.544;9.642;2023-12-28T02:09:19;98175.97;;;6.18;75.26
20394;BME280;10356;50.544;9.642;2023-12-28T02:11:45;98188.91;;;6.32;74.99
20394;BME280;10356;50.544;9.642;2023-12-28T02:14:12;98189.81;;;6.31;75.84
20394;BME280;10356;50.544;9.642;2023-12-28T02:16:41;98177.81;;;6.30;75.90
20394;BME280;10356;50.544;9.642;2023-12-28T02:19:19;98168.47;;;6.27;76.04
20394;BME280;10356;50.544;9.642;2023-12-28T02:21:52;98186.31;;;6.32;76.50
20394;BME280;10356;50.544;9.642;2023-12-28T02:24:19;98196.09;;;6.41;74.71
20394;BME280;10356;50.544;9.642;2023-12-28T02:26:47;98186.22;;;6.33;76.63
20394;BME280;10356;50.544;9.642;2023-12-28T02:29:13;98194.59;;;6.37;76.52
20394;BME280;10356;50.544;9.642;2023-12-28T02:31:46;98192.50;;;6.29;78.05
20394;BME280;10356;50.544;9.642;2023-12-28T02:34:19;98186.69;;;6.26;78.22
20394;BME280;10356;50.544;9.642;2023-12-28T02:36:47;98186.13;;;6.21;79.54
20394;BME280;10356;50.544;9.642;2023-12-28T02:39:14;98202.28;;;6.24;79.49
20394;BME280;10356;50.544;9.642;2023-12-28T02:41:43;98216.91;;;6.25;80.52
20394;BME280;10356;50.544;9.642;2023-12-28T02:44:12;98205.25;;;6.18;81.70
20394;BME280;10356;50.544;9.642;2023-12-28T02:46:39;98217.53;;;6.29;81.46
20394;BME280;10356;50.544;9.642;2023-12-28T02:49:06;98209.03;;;6.27;84.65
20394;BME280;10356;50.544;9.642;2023-12-28T02:51:32;98213.66;;;6.36;83.64
20394;BME280;10356;50.544;9.642;2023-12-28T02:53:58;98205.53;;;6.28;86.75
20394;BME280;10356;50.544;9.642;2023-12-28T02:56:25;98202.19;;;6.40;84.59
20394;BME280;10356;50.544;9.642;2023-12-28T02:58:51;98206.63;;;6.38;84.99
20394;BME280;10356;50.544;9.642;2023-12-28T03:01:19;98209.97;;;6.40;85.76
20394;BME280;10356;50.544;9.642;2023-12-28T03:03:46;98194.59;;;6.37;86.45
20394;BME280;10356;50.544;9.642;2023-12-28T03:06:12;98187.97;;;6.33;87.15
20394;BME280;10356;50.544;9.642;2023-12-28T03:08:38;98184.72;;;6.43;86.82
20394;BME280;10356;50.544;9.642;2023-12-28T03:11:05;98186.94;;;6.49;87.07
20394;BME280;10356;50.544;9.642;2023-12-28T03:13:31;98188.13;;;6.58;86.90
20394;BME280;10356;50.544;9.642;2023-12-28T03:15:58;98199.94;;;6.62;87.07
20394;BME280;10356;50.544;9.642;2023-12-28T03:18:26;98196.41;;;6.63;87.68
20394;BME280;10356;50.544;9.642;2023-12-28T03:20:52;98201.03;;;6.72;87.56
20394;BME280;10356;50.544;9.642;2023-12-28T03:23:18;98201.66;;;6.75;87.64
20394;BME280;10356;50.544;9.642;2023-12-28T03:25:45;98205.81;;;6.78;87.58
20394;BME280;10356;50.544;9.642;2023-12-28T03:28:11;98204.63;;;6.69;88.72
20394;BME280;10356;50.544;9.642;2023-12-28T03:30:38;98197.50;;;6.73;89.23
20394;BME280;10356;50.544;9.642;2023-12-28T03:33:04;98200.56;;;6.65;89.86
20394;BME280;10356;50.544;9.642;2023-12-28T03:35:32;98212.78;;;6.63;90.17
20394;BME280;10356;50.544;9.642;2023-12-28T03:37:59;98222.31;;;6.63;90.13
20394;BME280;10356;50.544;9.642;2023-12-28T03:40:26;98198.72;;;6.67;90.87
20394;BME280;10356;50.544;9.642;2023-12-28T03:42:52;98187.75;;;6.64;91.55
20394;BME280;10356;50.544;9.642;2023-12-28T03:45:19;98166.28;;;6.62;93.17
20394;BME280;10356;50.544;9.642;2023-12-28T03:47:45;98177.88;;;6.56;93.88
20394;BME280;10356;50.544;9.642;2023-12-28T03:50:12;98191.63;;;6.57;94.63
20394;BME280;10356;50.544;9.642;2023-12-28T03:52:40;98196.63;;;6.60;95.34
20394;BME280;10356;50.544;9.642;2023-12-28T03:55:06;98217.72;;;6.54;95.78
20394;BME280;10356;50.544;9.642;2023-12-28T03:57:33;98223.44;;;6.45;97.56
20394;BME280;10356;50.544;9.642;2023-12-28T04:00:00;98217.06;;;6.50;97.47
20394;BME280;10356;50.544;9.642;2023-12-28T04:02:26;98232.03;;;6.45;98.04
20394;BME280;10356;50.544;9.642;2023-12-28T04:04:56;98227.13;;;6.41;98.76
20394;BME280;10356;50.544;9.642;2023-12-28T04:07:24;98225.84;;;6.48;99.50
20394;BME280;10356;50.544;9.642;2023-12-28T04:09:51;98230.72;;;6.38;100.00
20394;BME280;10356;50.544;9.642;2023-12-28T04:12:18;98209.66;;;6.30;100.00
20394;BME280;10356;50.544;9.642;2023-12-28T04:14:44;98200.91;;;6.33;100.00
20394;BME280;10356;50.544;9.642;2023-12-28T04:17:11;98219.75;;;6.35;100.00
20394;BME280;10356;50.544;9.642;2023-12-28T04:19:37;98230.00;;;6.36;100.00
20394;BME280;10356;50.544;9.642;2023-12-28T04:22:04;98227.34;;;6.38;100.00
20394;BME280;10356;50.544;9.642;2023-12-28T04:24:30;98207.28;;;6.27;100.00
20394;BME280;10356;50.544;9.642;2023-12-28T04:26:58;98182.69;;;6.20;100.00
20394;BME280;10356;50.544;9.642;2023-12-28T04:29:24;98183.75;;;6.18;100.00
20394;BME280;10356;50.544;9.642;2023-12-28T04:31:51;98230.66;;;6.26;100.00
20394;BME280;10356;50.544;9.642;2023-12-28T04:34:17;98213.66;;;6.22;100.00
20394;BME280;10356;50.544;9.642;2023-12-28T04:36:44;98223.28;;;6.20;100.00
20394;BME280;10356;50.544;9.642;2023-12-28T04:39:12;98205.06;;;6.21;100.00
20394;BME280;10356;50.544;9.642;2023-12-28T04:41:38;98207.38;;;6.12;100.00
20394;BME280;10356;50.544;9.642;2023-12-28T04:44:06;98227.50;;;6.21;100.00
20394;BME280;10356;50.544;9.642;2023-12-28T04:46:32;98217.06;;;6.22;100.00
20394;BME280;10356;50.544;9.642;2023-12-28T04:49:03;98214.56;;;6.21;100.00
20394;BME280;10356;50.544;9.642;2023-12-28T04:51:30;98222.53;;;6.32;100.00
20394;BME280;10356;50.544;9.642;2023-12-28T04:53:56;98206.06;;;6.33;100.00
20394;BME280;10356;50.544;9.642;2023-12-28T04:56:23;98196.66;;;6.32;100.00
20394;BME280;10356;50.544;9.642;2023-12-28T04:58:49;98218.84;;;6.36;100.00
20394;BME280;10356;50.544;9.642;2023-12-28T05:01:17;98221.22;;;6.39;100.00
20394;BME280;10356;50.544;9.642;2023-12-28T05:03:43;98217.72;;;6.40;100.00
20394;BME280;10356;50.544;9.642;2023-12-28T05:06:10;98229.25;;;6.62;100.00
20394;BME280;10356;50.544;9.642;2023-12-28T05:08:36;98212.41;;;6.69;100.00
20394;BME280;10356;50.544;9.642;2023-12-28T05:11:03;98223.78;;;6.67;100.00
20394;BME280;10356;50.544;9.642;2023-12-28T05:13:29;98221.53;;;6.75;100.00
20394;BME280;10356;50.544;9.642;2023-12-28T05:15:56;98226.53;;;6.78;100.00
20394;BME280;10356;50.544;9.642;2023-12-28T05:18:23;98206.91;;;6.88;100.00
20394;BME280;10356;50.544;9.642;2023-12-28T05:20:51;98224.97;;;6.75;100.00
20394;BME280;10356;50.544;9.642;2023-12-28T05:23:18;98227.31;;;6.66;100.00
20394;BME280;10356;50.544;9.642;2023-12-28T05:25:44;98225.63;;;6.65;100.00
20394;BME280;10356;50.544;9.642;2023-12-28T05:28:11;98239.59;;;6.76;100.00
20394;BME280;10356;50.544;9.642;2023-12-28T05:30:37;98248.38;;;6.74;100.00
20394;BME280;10356;50.544;9.642;2023-12-28T05:33:04;98240.88;;;6.69;100.00
20394;BME280;10356;50.544;9.642;2023-12-28T05:35:32;98238.69;;;6.63;100.00
20394;BME280;10356;50.544;9.642;2023-12-28T05:37:58;98234.41;;;6.76;100.00
20394;BME280;10356;50.544;9.642;2023-12-28T05:40:25;98237.06;;;6.75;100.00
20394;BME280;10356;50.544;9.642;2023-12-28T05:42:51;98237.28;;;6.72;100.00
20394;BME280;10356;50.544;9.642;2023-12-28T05:45:17;98245.16;;;6.70;100.00
20394;BME280;10356;50.544;9.642;2023-12-28T05:47:44;98243.28;;;6.72;100.00
20394;BME280;10356;50.544;9.642;2023-12-28T05:50:11;98247.19;;;6.65;100.00
20394;BME280;10356;50.544;9.642;2023-12-28T05:52:39;98246.16;;;6.68;100.00
20394;BME280;10356;50.544;9.642;2023-12-28T05:55:06;98242.47;;;6.72;100.00
20394;BME280;10356;50.544;9.642;2023-12-28T05:57:33;98242.47;;;6.72;100.00
20394;BME280;10356;50.544;9.642;2023-12-28T05:59:59;98252.19;;;6.68;100.00
20394;BME280;10356;50.544;9.642;2023-12-28T06:02:26;98243.47;;;6.69;100.00
20394;BME280;10356;50.544;9.642;2023-12-28T06:04:52;98236.72;;;6.53;100.00
20394;BME280;10356;50.544;9.642;2023-12-28T06:07:19;98236.94;;;6.50;100.00
20394;BME280;10356;50.544;9.642;2023-12-28T06:09:46;98237.31;;;6.58;100.00
20394;BME280;10356;50.544;9.642;2023-12-28T06:12:13;98234.44;;;6.48;100.00
20394;BME280;10356;50.544;9.642;2023-12-28T06:14:40;98231.75;;;6.50;100.00
20394;BME280;10356;50.544;9.642;2023-12-28T06:17:07;98240.63;;;6.60;100.00
20394;BME280;10356;50.544;9.642;2023-12-28T06:19:33;98244.88;;;6.61;100.00
20394;BME280;10356;50.544;9.642;2023-12-28T06:22:00;98256.16;;;6.46;100.00
20394;BME280;10356;50.544;9.642;2023-12-28T06:24:26;98263.00;;;6.47;100.00
20394;BME280;10356;50.544;9.642;2023-12-28T06:26:57;98257.38;;;6.54;100.00
20394;BME280;10356;50.544;9.642;2023-12-28T06:29:23;98262.81;;;6.50;100.00
20394;BME280;10356;50.544;9.642;2023-12-28T06:31:50;98255.22;;;6.47;100.00
20394;BME280;10356;50.544;9.642;2023-12-28T06:34:16;98261.97;;;6.49;100.00
20394;BME280;10356;50.544;9.642;2023-12-28T06:36:43;98266.31;;;6.63;100.00
20394;BME280;10356;50.544;9.642;2023-12-28T06:39:09;98265.66;;;6.73;100.00
20394;BME280;10356;50.544;9.642;2023-12-28T06:41:36;98261.84;;;6.79;100.00
20394;BME280;10356;50.544;9.642;2023-12-28T06:44:04;98265.53;;;6.89;100.00
20394;BME280;10356;50.544;9.642;2023-12-28T06:46:30;98270.91;;;6.86;100.00
20394;BME280;10356;50.544;9.642;2023-12-28T06:48:57;98269.06;;;6.88;100.00
20394;BME280;10356;50.544;9.642;2023-12-28T06:51:24;98272.38;;;6.90;100.00
20394;BME280;10356;50.544;9.642;2023-12-28T06:53:51;98265.16;;;6.95;100.00
20394;BME280;10356;50.544;9.642;2023-12-28T06:56:18;98276.34;;;6.96;100.00
20394;BME280;10356;50.544;9.642;2023-12-28T06:58:44;98281.91;;;6.90;100.00
20394;BME280;10356;50.544;9.642;2023-12-28T07:01:12;98282.75;;;6.90;100.00
20394;BME280;10356;50.544;9.642;2023-12-28T07:03:39;98279.78;;;6.96;100.00
20394;BME280;10356;50.544;9.642;2023-12-28T07:06:05;98285.47;;;7.01;100.00
20394;BME280;10356;50.544;9.642;2023-12-28T07:08:32;98292.97;;;7.06;100.00
20394;BME280;10356;50.544;9.642;2023-12-28T07:10:58;98285.47;;;7.01;100.00
20394;BME280;10356;50.544;9.642;2023-12-28T07:13:25;98296.50;;;7.05;100.00
20394;BME280;10356;50.544;9.642;2023-12-28T07:15:51;98288.63;;;7.06;100.00
20394;BME280;10356;50.544;9.642;2023-12-28T07:18:20;98298.41;;;7.15;100.00
20394;BME280;10356;50.544;9.642;2023-12-28T07:20:46;98298.59;;;7.12;100.00
20394;BME280;10356;50.544;9.642;2023-12-28T07:23:12;98298.69;;;7.25;100.00
20394;BME280;10356;50.544;9.642;2023-12-28T07:25:39;98313.00;;;7.30;100.00
20394;BME280;10356;50.544;9.642;2023-12-28T07:28:05;98310.06;;;7.22;100.00
20394;BME280;10356;50.544;9.642;2023-12-28T07:30:32;98307.25;;;7.25;100.00
20394;BME280;10356;50.544;9.642;2023-12-28T07:32:58;98309.47;;;7.31;100.00
20394;BME280;10356;50.544;9.642;2023-12-28T07:35:26;98314.66;;;7.31;100.00
20394;BME280;10356;50.544;9.642;2023-12-28T07:37:53;98322.28;;;7.20;100.00
20394;BME280;10356;50.544;9.642;2023-12-28T07:40:20;98314.66;;;7.31;100.00
20394;BME280;10356;50.544;9.642;2023-12-28T07:42:46;98315.03;;;7.25;100.00
20394;BME280;10356;50.544;9.642;2023-12-28T07:45:13;98328.19;;;7.22;100.00
20394;BME280;10356;50.544;9.642;2023-12-28T07:47:39;98326.69;;;7.32;100.00
20394;BME280;10356;50.544;9.642;2023-12-28T07:50:09;98330.41;;;7.28;100.00
20394;BME280;10356;50.544;9.642;2023-12-28T07:52:38;98332.91;;;7.30;100.00
20394;BME280;10356;50.544;9.642;2023-12-28T07:55:05;98332.25;;;7.26;100.00
20394;BME280;10356;50.544;9.642;2023-12-28T07:57:31;98341.13;;;7.36;100.00
20394;BME280;10356;50.544;9.642;2023-12-28T07:59:59;98325.34;;;7.39;100.00
20394;BME280;10356;50.544;9.642;2023-12-28T08:02:26;98328.69;;;7.41;100.00
20394;BME280;10356;50.544;9.642;2023-12-28T08:04:52;98328.13;;;7.50;100.00
20394;BME280;10356;50.544;9.642;2023-12-28T08:07:19;98324.69;;;7.50;100.00
20394;BME280;10356;50.544;9.642;2023-12-28T08:09:47;98319.31;;;7.53;100.00
20394;BME280;10356;50.544;9.642;2023-12-28T08:12:13;98317.88;;;7.61;100.00
20394;BME280;10356;50.544;9.642;2023-12-28T08:14:39;98319.00;;;7.57;100.00
20394;BME280;10356;50.544;9.642;2023-12-28T08:17:06;98333.19;;;7.52;100.00
20394;BME280;10356;50.544;9.642;2023-12-28T08:19:33;98326.59;;;7.60;100.00
20394;BME280;10356;50.544;9.642;2023-12-28T08:21:59;98312.91;;;7.58;100.00
20394;BME280;10356;50.544;9.642;2023-12-28T08:24:26;98291.53;;;7.68;100.00
20394;BME280;10356;50.544;9.642;2023-12-28T08:26:53;98301.28;;;7.64;100.00
20394;BME280;10356;50.544;9.642;2023-12-28T08:29:24;98284.50;;;7.70;100.00
20394;BME280;10356;50.544;9.642;2023-12-28T08:31:50;98296.22;;;7.62;100.00
20394;BME280;10356;50.544;9.642;2023-12-28T08:34:17;98298.25;;;7.57;100.00
20394;BME280;10356;50.544;9.642;2023-12-28T08:36:43;98311.34;;;7.56;100.00
20394;BME280;10356;50.544;9.642;2023-12-28T08:39:10;98307.50;;;7.61;100.00
20394;BME280;10356;50.544;9.642;2023-12-28T08:41:36;98308.56;;;7.72;100.00
20394;BME280;10356;50.544;9.642;2023-12-28T08:44:04;98294.50;;;7.76;99.65
20394;BME280;10356;50.544;9.642;2023-12-28T08:46:31;98299.47;;;7.79;99.48
20394;BME280;10356;50.544;9.642;2023-12-28T08:48:58;98304.66;;;7.79;99.15
20394;BME280;10356;50.544;9.642;2023-12-28T08:51:24;98303.41;;;7.84;98.44
20394;BME280;10356;50.544;9.642;2023-12-28T08:53:51;98299.28;;;7.82;98.73
20394;BME280;10356;50.544;9.642;2023-12-28T08:56:19;98311.84;;;7.88;98.66
20394;BME280;10356;50.544;9.642;2023-12-28T08:58:46;98314.34;;;7.89;98.38
20394;BME280;10356;50.544;9.642;2023-12-28T09:01:17;98313.31;;;7.92;97.89
20394;BME280;10356;50.544;9.642;2023-12-28T09:03:44;98310.81;;;7.90;97.99
20394;BME280;10356;50.544;9.642;2023-12-28T09:06:11;98320.69;;;7.98;98.07
20394;BME280;10356;50.544;9.642;2023-12-28T09:08:37;98317.16;;;7.99;97.94
20394;BME280;10356;50.544;9.642;2023-12-28T09:11:04;98318.72;;;8.01;97.28
20394;BME280;10356;50.544;9.642;2023-12-28T09:13:30;98333.47;;;8.13;96.47
20394;BME280;10356;50.544;9.642;2023-12-28T09:15:57;98331.72;;;8.14;96.26
20394;BME280;10356;50.544;9.642;2023-12-28T09:18:24;98324.44;;;8.19;95.63
20394;BME280;10356;50.544;9.642;2023-12-28T09:20:51;98328.06;;;8.16;96.01
20394;BME280;10356;50.544;9.642;2023-12-28T09:23:17;98331.31;;;8.20;95.27
20394;BME280;10356;50.544;9.642;2023-12-28T09:25:44;98330.66;;;8.16;95.79
20394;BME280;10356;50.544;9.642;2023-12-28T09:28:10;98345.19;;;8.06;96.48
20394;BME280;10356;50.544;9.642;2023-12-28T09:30:38;98347.47;;;8.11;96.00
20394;BME280;10356;50.544;9.642;2023-12-28T09:33:04;98347.31;;;8.14;95.62
20394;BME280;10356;50.544;9.642;2023-12-28T09:35:33;98348.53;;;8.21;95.18
20394;BME280;10356;50.544;9.642;2023-12-28T09:38:00;98359.94;;;8.18;95.05
20394;BME280;10356;50.544;9.642;2023-12-28T09:40:26;98365.59;;;8.25;95.39
20394;BME280;10356;50.544;9.642;2023-12-28T09:42:57;98362.88;;;8.14;96.06
20394;BME280;10356;50.544;9.642;2023-12-28T09:45:27;98372.19;;;8.16;96.34
20394;BME280;10356;50.544;9.642;2023-12-28T09:47:53;98353.34;;;8.27;95.27
20394;BME280;10356;50.544;9.642;2023-12-28T09:50:21;98360.53;;;8.36;94.64
20394;BME280;10356;50.544;9.642;2023-12-28T09:52:50;98359.41;;;8.40;93.97
20394;BME280;10356;50.544;9.642;2023-12-28T09:55:16;98368.13;;;8.39;94.28
20394;BME280;10356;50.544;9.642;2023-12-28T09:57:43;98362.09;;;8.38;94.88
20394;BME280;10356;50.544;9.642;2023-12-28T10:00:12;98369.78;;;8.40;95.36
20394;BME280;10356;50.544;9.642;2023-12-28T10:02:40;98363.34;;;8.45;95.09
20394;BME280;10356;50.544;9.642;2023-12-28T10:05:12;98355.34;;;8.48;94.70
20394;BME280;10356;50.544;9.642;2023-12-28T10:07:41;98355.44;;;8.47;94.88
20394;BME280;10356;50.544;9.642;2023-12-28T10:10:09;98370.22;;;8.59;93.69
20394;BME280;10356;50.544;9.642;2023-12-28T10:12:36;98375.09;;;8.51;94.52
20394;BME280;10356;50.544;9.642;2023-12-28T10:15:04;98369.16;;;8.49;94.63
20394;BME280;10356;50.544;9.642;2023-12-28T10:17:32;98381.41;;;8.47;95.04
20394;BME280;10356;50.544;9.642;2023-12-28T10:19:59;98380.41;;;8.62;93.97
20394;BME280;10356;50.544;9.642;2023-12-28T10:22:29;98369.47;;;8.57;93.89
20394;BME280;10356;50.544;9.642;2023-12-28T10:24:56;98373.53;;;8.61;94.13
20394;BME280;10356;50.544;9.642;2023-12-28T10:27:23;98376.25;;;8.72;94.14
20394;BME280;10356;50.544;9.642;2023-12-28T10:29:53;98370.22;;;8.84;93.25
20394;BME280;10356;50.544;9.642;2023-12-28T10:32:20;98371.31;;;8.93;92.75
20394;BME280;10356;50.544;9.642;2023-12-28T10:34:48;98369.56;;;8.93;92.42
20394;BME280;10356;50.544;9.642;2023-12-28T10:37:16;98365.41;;;8.91;92.18
20394;BME280;10356;50.544;9.642;2023-12-28T10:39:46;98366.13;;;8.93;90.84
20394;BME280;10356;50.544;9.642;2023-12-28T10:42:18;98355.97;;;8.90;91.73
20394;BME280;10356;50.544;9.642;2023-12-28T10:44:49;98360.31;;;8.89;91.96
20394;BME280;10356;50.544;9.642;2023-12-28T10:47:21;98349.19;;;9.00;90.48
20394;BME280;10356;50.544;9.642;2023-12-28T10:49:53;98349.19;;;9.12;90.85
20394;BME280;10356;50.544;9.642;2023-12-28T10:52:26;98343.84;;;9.26;90.12
20394;BME280;10356;50.544;9.642;2023-12-28T10:54:58;98344.63;;;9.40;88.31
20394;BME280;10356;50.544;9.642;2023-12-28T10:57:29;98334.94;;;9.42;87.31
20394;BME280;10356;50.544;9.642;2023-12-28T11:00:02;98339.38;;;9.52;86.70
20394;BME280;10356;50.544;9.642;2023-12-28T11:02:38;98341.78;;;9.55;86.43
20394;BME280;10356;50.544;9.642;2023-12-28T11:05:05;98331.41;;;9.66;86.04
20394;BME280;10356;50.544;9.642;2023-12-28T11:07:35;98333.56;;;9.72;85.89
20394;BME280;10356;50.544;9.642;2023-12-28T11:10:03;98337.56;;;9.89;84.85
20394;BME280;10356;50.544;9.642;2023-12-28T11:12:31;98329.50;;;9.92;83.46
20394;BME280;10356;50.544;9.642;2023-12-28T11:15:00;98330.34;;;9.92;83.51
20394;BME280;10356;50.544;9.642;2023-12-28T11:17:30;98310.75;;;9.99;83.34
20394;BME280;10356;50.544;9.642;2023-12-28T11:19:57;98313.81;;;10.04;82.76
20394;BME280;10356;50.544;9.642;2023-12-28T11:22:25;98317.25;;;10.05;81.76
20394;BME280;10356;50.544;9.642;2023-12-28T11:24:52;98320.63;;;10.18;82.11
20394;BME280;10356;50.544;9.642;2023-12-28T11:27:19;98314.59;;;10.18;81.57
20394;BME280;10356;50.544;9.642;2023-12-28T11:29:47;98322.34;;;10.41;81.19
20394;BME280;10356;50.544;9.642;2023-12-28T11:32:15;98328.38;;;10.53;80.72
20394;BME280;10356;50.544;9.642;2023-12-28T11:34:42;98322.63;;;10.60;79.86
20394;BME280;10356;50.544;9.642;2023-12-28T11:37:12;98321.53;;;10.63;80.69
20394;BME280;10356;50.544;9.642;2023-12-28T11:39:41;98324.25;;;10.61;79.67
20394;BME280;10356;50.544;9.642;2023-12-28T11:42:10;98317.88;;;10.54;78.84
20394;BME280;10356;50.544;9.642;2023-12-28T11:44:38;98306.53;;;10.66;77.75
20394;BME280;10356;50.544;9.642;2023-12-28T11:47:11;98304.00;;;10.87;77.36
20394;BME280;10356;50.544;9.642;2023-12-28T11:49:39;98304.16;;;10.74;77.83
20394;BME280;10356;50.544;9.642;2023-12-28T11:52:06;98302.34;;;10.75;77.32
20394;BME280;10356;50.544;9.642;2023-12-28T11:54:33;98300.84;;;10.72;77.93
20394;BME280;10356;50.544;9.642;2023-12-28T11:56:59;98298.47;;;10.80;77.20
20394;BME280;10356;50.544;9.642;2023-12-28T11:59:26;98303.78;;;10.79;76.83
20394;BME280;10356;50.544;9.642;2023-12-28T12:01:53;98295.72;;;10.82;76.80
20394;BME280;10356;50.544;9.642;2023-12-28T12:04:20;98302.94;;;10.67;78.16
20394;BME280;10356;50.544;9.642;2023-12-28T12:06:48;98310.53;;;10.70;76.91
20394;BME280;10356;50.544;9.642;2023-12-28T12:09:16;98304.97;;;10.64;78.07
20394;BME280;10356;50.544;9.642;2023-12-28T12:11:43;98308.47;;;10.41;78.74
20394;BME280;10356;50.544;9.642;2023-12-28T12:14:10;98298.97;;;10.18;78.83
20394;BME280;10356;50.544;9.642;2023-12-28T12:16:37;98295.31;;;10.20;79.41
20394;BME280;10356;50.544;9.642;2023-12-28T12:19:04;98306.69;;;10.19;79.90
20394;BME280;10356;50.544;9.642;2023-12-28T12:21:32;98301.81;;;10.14;79.82
20394;BME280;10356;50.544;9.642;2023-12-28T12:24:00;98295.03;;;10.12;79.53
20394;BME280;10356;50.544;9.642;2023-12-28T12:26:27;98288.38;;;10.08;80.86
20394;BME280;10356;50.544;9.642;2023-12-28T12:28:55;98284.72;;;9.99;80.80
20394;BME280;10356;50.544;9.642;2023-12-28T12:31:22;98279.84;;;10.06;79.73
20394;BME280;10356;50.544;9.642;2023-12-28T12:33:49;98277.22;;;9.95;80.54
20394;BME280;10356;50.544;9.642;2023-12-28T12:36:17;98280.41;;;9.87;80.82
20394;BME280;10356;50.544;9.642;2023-12-28T12:38:43;98262.28;;;9.86;80.87
20394;BME280;10356;50.544;9.642;2023-12-28T12:41:11;98261.47;;;9.85;80.93
20394;BME280;10356;50.544;9.642;2023-12-28T12:43:38;98253.78;;;9.84;80.88
20394;BME280;10356;50.544;9.642;2023-12-28T12:46:06;98245.94;;;9.73;80.77
20394;BME280;10356;50.544;9.642;2023-12-28T12:48:33;98247.50;;;9.75;81.28
20394;BME280;10356;50.544;9.642;2023-12-28T12:51:02;98247.81;;;9.71;81.60
20394;BME280;10356;50.544;9.642;2023-12-28T12:53:32;98249.97;;;9.77;81.51
20394;BME280;10356;50.544;9.642;2023-12-28T12:55:59;98236.47;;;9.72;81.18
20394;BME280;10356;50.544;9.642;2023-12-28T12:58:27;98229.56;;;9.60;82.24
20394;BME280;10356;50.544;9.642;2023-12-28T13:00:55;98233.47;;;9.54;81.39
20394;BME280;10356;50.544;9.642;2023-12-28T13:20:12;98222.41;;;9.40;82.71
20394;BME280;10356;50.544;9.642;2023-12-28T13:22:39;98230.31;;;9.38;82.22